CheckWX is a tool to help pilots better visualize weather data.  It is not intended as a substitute for an official pre-flight weather briefing.

15:23:14 UTC

EHPG METAR
P11-b Sea
P11-b Sea, The Netherlands
Current

28 mins ago

EHPG 201455Z AUTO 32014KT 270V020 6000 SCT001 OVC002 11/10 Q1011 W///H///
Observed
May-20 @ 14:55 UTC
Wind
  • 320° at 14 KTS
Visibility
6,003 meters
Flight Rules
LIFR
Cloud Levels
  • Scattered at 100' AGL
  • Overcast at 200' AGL
Temperature
11°C / 52°F
Dewpoint
10°C / 50°F
Humidity
94%
Altimeter
29.85" Hg
Pressure
1010.92 hPa
Previous

58 mins ago

EHPG 201425Z AUTO 32014KT 260V020 6000 SCT001 OVC003 11/10 Q1011 W///H///
Observed
May-20 @ 14:25 UTC
Wind
  • 320° at 14 KTS
Visibility
6,003 meters
Flight Rules
LIFR
Cloud Levels
  • Scattered at 100' AGL
  • Overcast at 300' AGL
Temperature
11°C / 52°F
Dewpoint
10°C / 50°F
Humidity
94%
Altimeter
29.85" Hg
Pressure
1010.92 hPa
Previous

1 hour ago

EHPG 201355Z AUTO 33015KT 280V010 8000 BKN003 BKN004 OVC007 11/10 Q1011 W///H///
Observed
May-20 @ 13:55 UTC
Wind
  • 330° at 15 KTS
Visibility
7,998 meters
Flight Rules
LIFR
Cloud Levels
  • Broken at 300' AGL
  • Broken at 400' AGL
  • Overcast at 700' AGL
Temperature
11°C / 52°F
Dewpoint
10°C / 50°F
Humidity
94%
Altimeter
29.85" Hg
Pressure
1010.92 hPa